createdAt,value
2023-03-17T00:01:09.923Z,98279.84
2023-03-17T00:04:12.952Z,98274.03
2023-03-17T00:07:17.906Z,98266.34
2023-03-17T00:10:23.286Z,98250.25
2023-03-17T00:13:25.988Z,98238.63
2023-03-17T00:16:41.902Z,98268.00
2023-03-17T00:19:44.948Z,98264.56
2023-03-17T00:22:46.953Z,98256.75
2023-03-17T00:25:49.965Z,98256.41
2023-03-17T00:28:52.201Z,98246.09
2023-03-17T00:31:57.788Z,98244.00
2023-03-17T00:34:59.813Z,98199.97
2023-03-17T00:38:01.885Z,98182.75
2023-03-17T00:41:05.419Z,98231.75
2023-03-17T00:44:07.412Z,98220.28
2023-03-17T00:47:12.011Z,98205.88
2023-03-17T00:50:17.549Z,98226.53
2023-03-17T00:53:21.775Z,98228.69
2023-03-17T00:56:23.894Z,98217.34
2023-03-17T00:59:52.517Z,98216.03
2023-03-17T01:02:56.878Z,98197.03
2023-03-17T01:05:59.828Z,98195.72
2023-03-17T01:09:01.900Z,98179.16
2023-03-17T01:12:04.183Z,98178.00
2023-03-17T01:15:07.217Z,98170.81
2023-03-17T01:18:14.202Z,98175.41
2023-03-17T01:21:16.210Z,98169.03
2023-03-17T01:24:18.226Z,98158.06
2023-03-17T01:27:22.176Z,98156.41
2023-03-17T01:30:37.704Z,98162.81
2023-03-17T01:33:39.690Z,98146.41
2023-03-17T01:36:42.189Z,98138.06
2023-03-17T01:39:44.209Z,98144.41
2023-03-17T01:43:02.406Z,98152.94
2023-03-17T01:46:07.488Z,98144.41
2023-03-17T01:49:25.235Z,98140.47
2023-03-17T01:52:29.185Z,98137.16
2023-03-17T01:55:32.200Z,98134.59
2023-03-17T01:58:34.772Z,98133.09
2023-03-17T02:01:45.369Z,98131.81
2023-03-17T02:04:47.538Z,98129.69
2023-03-17T02:07:49.620Z,98121.81
2023-03-17T02:10:52.533Z,98120.03
2023-03-17T02:13:54.913Z,98114.63
2023-03-17T02:16:57.611Z,98124.34
2023-03-17T02:20:18.603Z,98110.91
2023-03-17T02:23:24.043Z,98111.56
2023-03-17T02:26:26.997Z,98107.81
2023-03-17T02:29:29.039Z,98096.97
2023-03-17T02:32:31.110Z,98110.56
2023-03-17T02:35:33.151Z,98110.38
2023-03-17T02:38:36.328Z,98109.09
2023-03-17T02:41:38.438Z,98115.66
2023-03-17T02:44:40.663Z,98107.63
2023-03-17T02:47:42.844Z,98109.09
2023-03-17T02:50:45.171Z,98061.97
2023-03-17T02:53:47.202Z,98099.63
2023-03-17T02:56:49.241Z,98107.16
2023-03-17T02:59:51.525Z,98105.88
2023-03-17T03:02:53.516Z,98103.72
2023-03-17T03:05:55.635Z,98091.44
2023-03-17T03:08:57.683Z,98106.19
2023-03-17T03:11:59.938Z,98087.22
2023-03-17T03:15:01.886Z,98093.75
2023-03-17T03:18:04.068Z,98092.94
2023-03-17T03:21:07.525Z,98055.28
2023-03-17T03:24:09.889Z,98082.78
2023-03-17T03:27:12.094Z,98096.50
2023-03-17T03:30:14.757Z,98050.69
2023-03-17T03:33:17.869Z,98094.06
2023-03-17T03:36:20.723Z,98074.91
2023-03-17T03:39:22.915Z,98083.75
2023-03-17T03:42:24.909Z,98075.72
2023-03-17T03:45:27.181Z,98076.56
2023-03-17T03:48:29.329Z,98042.84
2023-03-17T03:51:31.330Z,98072.28
2023-03-17T03:54:33.385Z,98069.34
2023-03-17T03:57:35.786Z,98075.41
2023-03-17T04:00:37.909Z,98077.88
2023-03-17T04:03:40.073Z,98072.81
2023-03-17T04:06:42.046Z,98077.03
2023-03-17T04:09:44.122Z,98016.34
2023-03-17T04:12:46.976Z,98066.09
2023-03-17T04:15:49.026Z,98062.47
2023-03-17T04:18:51.409Z,98064.94
2023-03-17T04:21:54.758Z,98053.97
2023-03-17T04:24:57.046Z,98050.53
2023-03-17T04:27:58.985Z,98055.13
2023-03-17T04:31:00.997Z,98046.59
2023-03-17T04:34:03.078Z,98004.75
2023-03-17T04:37:05.181Z,98006.38
2023-03-17T04:40:10.978Z,98024.19
2023-03-17T04:43:12.954Z,98050.19
2023-03-17T04:46:15.101Z,98060.50
2023-03-17T04:49:17.319Z,98055.06
2023-03-17T04:52:19.317Z,98059.16
2023-03-17T04:55:21.582Z,98056.53
2023-03-17T04:58:30.886Z,98053.38
2023-03-17T05:01:33.278Z,98050.41
2023-03-17T05:04:35.257Z,98043.34
2023-03-17T05:07:37.221Z,98046.59
2023-03-17T05:10:39.167Z,98042.34
2023-03-17T05:13:41.424Z,98043.84
2023-03-17T05:16:43.620Z,98031.38
2023-03-17T05:19:45.654Z,98033.28
2023-03-17T05:22:47.648Z,98010.25
2023-03-17T05:25:49.819Z,98017.91
2023-03-17T05:28:51.850Z,98043.03
2023-03-17T05:31:54.158Z,98046.44
2023-03-17T05:34:56.169Z,98037.50
2023-03-17T05:37:58.281Z,98050.19
2023-03-17T05:41:00.363Z,98028.97
2023-03-17T05:44:02.366Z,98037.53
2023-03-17T05:47:04.432Z,98040.16
2023-03-17T05:50:06.856Z,98028.38
2023-03-17T05:53:09.980Z,98025.75
2023-03-17T05:56:12.946Z,98030.94
2023-03-17T05:59:16.934Z,98024.63
2023-03-17T06:02:18.927Z,98033.63
2023-03-17T06:05:20.969Z,98023.03
2023-03-17T06:08:23.334Z,97947.94
2023-03-17T06:11:25.454Z,98037.44
2023-03-17T06:14:27.585Z,98022.38
2023-03-17T06:17:29.696Z,98041.50
2023-03-17T06:20:33.617Z,98030.53
2023-03-17T06:23:35.602Z,98024.69
2023-03-17T06:26:37.729Z,98028.16
2023-03-17T06:29:39.797Z,98019.44
2023-03-17T06:32:42.077Z,98018.00
2023-03-17T06:35:44.218Z,98028.41
2023-03-17T06:38:46.396Z,98014.00
2023-03-17T06:41:49.312Z,98026.84
2023-03-17T06:44:53.560Z,98028.50
2023-03-17T06:47:55.750Z,98000.06
2023-03-17T06:50:57.896Z,98013.69
2023-03-17T06:53:59.889Z,98030.97
2023-03-17T06:57:02.232Z,98036.31
2023-03-17T07:00:08.738Z,98032.31
2023-03-17T07:03:11.448Z,98006.91
2023-03-17T07:06:13.510Z,98032.03
2023-03-17T07:09:15.779Z,98000.63
2023-03-17T07:12:17.806Z,98031.63
2023-03-17T07:15:21.030Z,98046.53
2023-03-17T07:18:23.868Z,98034.06
2023-03-17T07:21:25.905Z,98041.06
2023-03-17T07:24:28.099Z,98038.63
2023-03-17T07:27:31.549Z,98040.78
2023-03-17T07:30:33.893Z,98037.59
2023-03-17T07:33:35.875Z,98038.88
2023-03-17T07:36:37.858Z,98019.41
2023-03-17T07:39:40.519Z,98028.00
2023-03-17T07:42:42.551Z,98018.59
2023-03-17T07:45:45.218Z,98014.00
2023-03-17T07:48:47.434Z,98018.69
2023-03-17T07:51:49.448Z,98013.84
2023-03-17T07:54:52.556Z,98006.06
2023-03-17T07:57:54.567Z,98014.47
2023-03-17T08:00:57.985Z,98007.38
2023-03-17T08:04:00.666Z,98000.53
2023-03-17T08:07:03.363Z,98005.38
2023-03-17T08:10:09.201Z,98000.09
2023-03-17T08:13:11.276Z,98001.66
2023-03-17T08:16:13.797Z,98005.97
2023-03-17T08:19:16.494Z,97998.66
2023-03-17T08:22:18.544Z,98006.53
2023-03-17T08:25:20.634Z,98005.13
2023-03-17T08:28:22.694Z,98003.50
2023-03-17T08:31:25.285Z,98000.94
2023-03-17T08:34:27.415Z,98015.47
2023-03-17T08:37:29.431Z,97972.56
2023-03-17T08:40:31.898Z,97984.88
2023-03-17T08:43:36.309Z,97995.53
2023-03-17T08:46:38.330Z,97986.47
2023-03-17T08:49:40.344Z,97988.59
2023-03-17T08:52:42.482Z,97990.63
2023-03-17T08:55:44.638Z,97978.53
2023-03-17T08:58:47.078Z,97990.00
2023-03-17T09:01:49.221Z,97968.03
2023-03-17T09:04:51.231Z,97971.25
2023-03-17T09:07:53.720Z,98000.88
2023-03-17T09:10:55.764Z,97998.50
2023-03-17T09:13:57.911Z,97996.09
2023-03-17T09:16:59.902Z,98012.13
2023-03-17T09:20:02.091Z,98008.94
2023-03-17T09:23:08.356Z,98005.03
2023-03-17T09:26:10.938Z,98004.69
2023-03-17T09:29:13.258Z,97906.97
2023-03-17T09:32:16.510Z,98001.16
2023-03-17T09:35:18.789Z,97968.91
2023-03-17T09:38:21.705Z,97992.25
2023-03-17T09:41:42.678Z,97992.53
2023-03-17T09:45:03.823Z,97984.78
2023-03-17T09:48:27.659Z,97986.75
2023-03-17T09:51:32.563Z,97983.59
2023-03-17T09:54:38.338Z,97974.47
2023-03-17T09:57:41.058Z,97984.06
2023-03-17T10:00:43.973Z,97977.78
2023-03-17T10:03:47.486Z,97975.31
2023-03-17T10:06:52.177Z,97930.97
2023-03-17T10:10:12.777Z,97966.84
2023-03-17T10:13:33.265Z,97957.22
2023-03-17T10:16:43.228Z,97966.88
2023-03-17T10:20:00.009Z,97962.03
2023-03-17T10:23:07.919Z,97948.53
2023-03-17T10:26:31.796Z,97955.91
2023-03-17T10:29:33.987Z,97964.13
2023-03-17T10:32:39.270Z,97961.28
2023-03-17T10:35:41.503Z,97946.97
2023-03-17T10:39:05.577Z,97948.16
2023-03-17T10:42:14.163Z,97963.75
2023-03-17T10:45:25.938Z,97952.16
2023-03-17T10:48:30.296Z,97942.50
2023-03-17T10:51:38.096Z,97934.81
2023-03-17T10:54:40.623Z,97940.88
2023-03-17T10:57:53.487Z,97919.66
2023-03-17T11:01:06.016Z,97944.94
2023-03-17T11:04:28.635Z,97946.88
2023-03-17T11:07:40.840Z,97936.59
2023-03-17T11:10:43.332Z,97935.75
2023-03-17T11:13:45.480Z,97947.66
2023-03-17T11:16:55.504Z,97959.63
2023-03-17T11:20:22.322Z,97944.09
2023-03-17T11:23:42.337Z,97941.28
2023-03-17T11:26:56.770Z,97915.44
2023-03-17T11:30:13.560Z,97914.31
2023-03-17T11:33:36.508Z,97915.28
2023-03-17T11:36:59.158Z,97922.97
2023-03-17T11:40:19.971Z,97923.63
2023-03-17T11:43:30.768Z,97920.88
2023-03-17T11:46:57.926Z,97921.00
2023-03-17T11:50:34.982Z,97909.34
2023-03-17T11:53:55.649Z,97903.81
2023-03-17T11:57:10.808Z,97894.06
2023-03-17T12:00:28.297Z,97897.31
2023-03-17T12:03:39.482Z,97882.88
2023-03-17T12:06:56.133Z,97868.91
2023-03-17T12:10:19.723Z,97869.81
2023-03-17T12:13:24.565Z,97891.25
2023-03-17T12:16:46.703Z,97861.25
2023-03-17T12:20:07.314Z,97859.72
2023-03-17T12:23:19.283Z,97858.63
2023-03-17T12:27:00.783Z,97855.41
2023-03-17T12:30:38.977Z,97860.19
2023-03-17T12:34:05.472Z,97858.34
2023-03-17T12:37:07.889Z,97819.78
2023-03-17T12:40:15.516Z,97837.78
2023-03-17T12:43:29.425Z,97835.94
2023-03-17T12:46:43.592Z,97829.53
2023-03-17T12:50:07.170Z,97723.75
2023-03-17T12:53:32.688Z,97818.31
2023-03-17T12:56:36.800Z,97822.91
2023-03-17T12:59:42.913Z,97807.84
2023-03-17T13:02:49.791Z,97797.75
2023-03-17T13:05:58.803Z,97795.84
2023-03-17T13:09:36.184Z,97799.03
2023-03-17T13:12:41.676Z,97802.56
2023-03-17T13:15:43.728Z,97792.66
2023-03-17T13:18:48.224Z,97799.91
2023-03-17T13:22:05.756Z,97796.00
2023-03-17T13:25:35.682Z,97802.63
2023-03-17T13:28:37.675Z,97788.31
2023-03-17T13:31:39.801Z,97791.00
2023-03-17T13:34:49.278Z,97785.59
2023-03-17T13:38:09.501Z,97783.63
2023-03-17T13:41:17.551Z,97784.13
2023-03-17T13:45:01.360Z,97753.47
2023-03-17T13:48:33.870Z,97786.91
2023-03-17T13:51:36.795Z,97782.41
2023-03-17T13:54:49.326Z,97782.81
2023-03-17T13:58:23.471Z,97772.44
2023-03-17T14:01:28.342Z,97766.09
2023-03-17T14:04:40.380Z,97765.59
2023-03-17T14:07:49.557Z,97764.97
2023-03-17T14:10:57.391Z,97762.50
2023-03-17T14:14:31.193Z,97761.25
2023-03-17T14:17:47.014Z,97763.06
2023-03-17T14:20:57.025Z,97772.63
2023-03-17T14:24:01.844Z,97755.38
2023-03-17T14:27:07.902Z,97732.88
2023-03-17T14:30:20.036Z,97732.56
2023-03-17T14:33:27.696Z,97725.38
2023-03-17T14:36:34.747Z,97730.22
2023-03-17T14:39:45.413Z,97744.31
2023-03-17T14:42:47.465Z,97721.56
2023-03-17T14:45:52.881Z,97716.00
2023-03-17T14:49:03.657Z,97709.44
2023-03-17T14:52:05.906Z,97718.16
2023-03-17T14:55:08.487Z,97722.72
2023-03-17T14:58:30.691Z,97725.06
2023-03-17T15:01:39.813Z,97722.97
2023-03-17T15:04:53.742Z,97709.75
2023-03-17T15:07:55.693Z,97714.44
2023-03-17T15:11:02.776Z,97717.81
2023-03-17T15:14:14.982Z,97722.28
2023-03-17T15:17:20.562Z,97712.53
2023-03-17T15:20:23.505Z,97709.84
2023-03-17T15:23:29.725Z,97678.44
2023-03-17T15:26:32.103Z,97708.84
2023-03-17T15:29:34.580Z,97698.28
2023-03-17T15:32:36.772Z,97697.66
2023-03-17T15:35:38.986Z,97703.66
2023-03-17T15:38:41.420Z,97704.44
2023-03-17T15:41:43.436Z,97697.38
2023-03-17T15:44:45.591Z,97697.56
2023-03-17T15:47:47.676Z,97686.50
2023-03-17T15:50:51.355Z,97704.06
2023-03-17T15:53:53.376Z,97703.34
2023-03-17T15:56:56.140Z,97700.09
2023-03-17T15:59:58.202Z,97689.44
2023-03-17T16:03:04.524Z,97659.81
2023-03-17T16:06:14.752Z,97688.25
2023-03-17T16:09:17.887Z,97675.41
2023-03-17T16:12:19.999Z,97669.91
2023-03-17T16:15:24.436Z,97678.94
2023-03-17T16:18:39.142Z,97678.28
2023-03-17T16:21:42.622Z,97681.78
2023-03-17T16:24:44.906Z,97674.41
2023-03-17T16:27:48.979Z,97681.75
2023-03-17T16:30:52.322Z,97682.22
2023-03-17T16:33:55.705Z,97668.63
2023-03-17T16:36:57.826Z,97687.50
2023-03-17T16:40:00.000Z,97684.75
2023-03-17T16:43:10.349Z,97690.78
2023-03-17T16:46:19.821Z,97696.16
2023-03-17T16:49:23.170Z,97686.66
2023-03-17T16:52:25.926Z,97681.94
2023-03-17T16:55:29.678Z,97697.44
2023-03-17T16:58:37.437Z,97690.84
2023-03-17T17:01:40.045Z,97702.06
2023-03-17T17:04:42.185Z,97702.78
2023-03-17T17:07:45.568Z,97707.38
2023-03-17T17:10:47.612Z,97705.53
2023-03-17T17:13:50.770Z,97718.13
2023-03-17T17:16:53.163Z,97707.72
2023-03-17T17:19:55.327Z,97714.97
2023-03-17T17:22:59.562Z,97709.53
2023-03-17T17:26:01.929Z,97715.53
2023-03-17T17:29:04.521Z,97707.16
2023-03-17T17:32:07.261Z,97664.81
2023-03-17T17:35:11.528Z,97701.91
2023-03-17T17:38:22.053Z,97700.22
2023-03-17T17:41:25.013Z,97667.88
2023-03-17T17:44:28.827Z,97695.25
2023-03-17T17:47:33.282Z,97704.31
2023-03-17T17:50:36.077Z,97695.59
2023-03-17T17:53:39.151Z,97695.00
2023-03-17T17:56:46.988Z,97671.41
2023-03-17T17:59:50.114Z,97695.28
2023-03-17T18:02:52.906Z,97683.19
2023-03-17T18:05:57.428Z,97696.03
2023-03-17T18:09:00.389Z,97695.03
2023-03-17T18:12:04.167Z,97690.78
2023-03-17T18:15:08.605Z,97692.69
2023-03-17T18:18:12.711Z,97686.09
2023-03-17T18:21:16.705Z,97694.09
2023-03-17T18:24:20.150Z,97696.03
2023-03-17T18:27:23.246Z,97677.09
2023-03-17T18:30:29.088Z,97687.56
2023-03-17T18:33:34.656Z,97683.91
2023-03-17T18:36:37.512Z,97694.91
2023-03-17T18:39:41.886Z,97686.72
2023-03-17T18:42:45.129Z,97687.59
2023-03-17T18:45:55.212Z,97680.13
2023-03-17T18:48:57.856Z,97680.31
2023-03-17T18:52:02.713Z,97675.69
2023-03-17T18:55:07.310Z,97689.44
2023-03-17T18:58:10.738Z,97682.81
2023-03-17T19:01:13.877Z,97678.50
2023-03-17T19:04:18.575Z,97672.97
2023-03-17T19:07:23.156Z,97666.69
2023-03-17T19:10:27.966Z,97679.28
2023-03-17T19:13:31.088Z,97548.47
2023-03-17T19:16:37.807Z,97675.53
2023-03-17T19:19:42.038Z,97660.50
2023-03-17T19:22:47.175Z,97671.03
2023-03-17T19:25:51.224Z,97672.91
2023-03-17T19:28:57.015Z,97669.94
2023-03-17T19:32:00.551Z,97675.91
2023-03-17T19:35:07.796Z,97665.16
2023-03-17T19:38:12.113Z,97669.34
2023-03-17T19:41:17.808Z,97667.91
2023-03-17T19:44:21.047Z,97670.00
2023-03-17T19:47:24.417Z,97668.47
2023-03-17T19:50:27.296Z,97658.00
2023-03-17T19:53:30.103Z,97642.28
2023-03-17T19:56:33.336Z,97647.97
2023-03-17T19:59:36.688Z,97665.63
2023-03-17T20:02:40.521Z,97656.75
2023-03-17T20:05:46.631Z,97579.84
2023-03-17T20:08:49.422Z,97645.34
2023-03-17T20:11:53.599Z,97666.88
2023-03-17T20:14:56.333Z,97658.16
2023-03-17T20:17:59.506Z,97639.38
2023-03-17T20:21:06.351Z,97652.31
2023-03-17T20:24:12.974Z,97658.22
2023-03-17T20:27:16.539Z,97626.72
2023-03-17T20:30:20.770Z,97659.78
2023-03-17T20:33:25.133Z,97658.53
2023-03-17T20:36:29.051Z,97649.63
2023-03-17T20:39:33.007Z,97642.31
2023-03-17T20:42:37.027Z,97614.38
2023-03-17T20:45:39.678Z,97653.94
2023-03-17T20:48:42.294Z,97647.38
2023-03-17T20:51:45.364Z,97602.59
2023-03-17T20:54:50.110Z,97638.41
2023-03-17T20:57:52.875Z,97632.31
2023-03-17T21:00:56.519Z,97634.75
2023-03-17T21:04:00.005Z,97631.13
2023-03-17T21:07:04.015Z,97586.38
2023-03-17T21:10:06.943Z,97609.66
2023-03-17T21:13:09.962Z,97621.84
2023-03-17T21:16:27.988Z,97631.22
2023-03-17T21:19:30.725Z,97628.41
2023-03-17T21:22:35.009Z,97627.75
2023-03-17T21:25:37.643Z,97618.84
2023-03-17T21:28:41.607Z,97614.97
2023-03-17T21:31:43.870Z,97611.97
2023-03-17T21:34:46.725Z,97617.06
2023-03-17T21:37:49.776Z,97619.13
2023-03-17T21:40:52.011Z,97617.53
2023-03-17T21:43:55.334Z,97611.03
2023-03-17T21:46:57.780Z,97611.78
2023-03-17T21:50:00.114Z,97609.16
2023-03-17T21:53:02.503Z,97607.53
2023-03-17T21:56:04.883Z,97600.00
2023-03-17T21:59:11.115Z,97571.63
2023-03-17T22:02:13.886Z,97604.47
2023-03-17T22:05:16.595Z,97598.84
2023-03-17T22:08:19.224Z,97576.38
2023-03-17T22:11:21.884Z,97585.47
2023-03-17T22:14:23.958Z,97591.56
2023-03-17T22:17:26.288Z,97598.03
2023-03-17T22:20:30.275Z,97591.91
2023-03-17T22:23:37.419Z,97587.06
2023-03-17T22:26:39.571Z,97495.72
2023-03-17T22:29:41.810Z,97587.47
2023-03-17T22:32:43.832Z,97585.41
2023-03-17T22:35:46.185Z,97582.44
2023-03-17T22:38:48.408Z,97593.97
2023-03-17T22:41:50.349Z,97594.25
2023-03-17T22:44:52.392Z,97585.34
2023-03-17T22:47:54.529Z,97581.50
2023-03-17T22:50:56.530Z,97577.88
2023-03-17T22:53:58.572Z,97548.28
2023-03-17T22:57:00.761Z,97570.56
2023-03-17T23:00:08.774Z,97533.09
2023-03-17T23:03:10.958Z,97569.97
2023-03-17T23:06:13.485Z,97570.78
2023-03-17T23:09:15.728Z,97563.69
2023-03-17T23:12:17.993Z,97563.91
2023-03-17T23:15:21.203Z,97574.03
2023-03-17T23:18:24.311Z,97564.75
2023-03-17T23:21:30.974Z,97559.69
2023-03-17T23:24:33.036Z,97570.44
2023-03-17T23:27:35.003Z,97570.38
2023-03-17T23:30:37.637Z,97566.09
2023-03-17T23:33:39.910Z,97571.81
2023-03-17T23:36:42.435Z,97570.59
2023-03-17T23:39:44.940Z,97566.53
2023-03-17T23:42:50.833Z,97560.91
2023-03-17T23:45:54.062Z,97527.91
2023-03-17T23:48:56.523Z,97567.78
2023-03-17T23:51:58.878Z,97563.31
2023-03-17T23:55:01.427Z,97551.59
2023-03-17T23:58:03.776Z,97563.72
